createdAt,value
2022-10-18T00:02:43.513Z,11.20
2022-10-18T00:05:45.295Z,11.22
2022-10-18T00:08:46.997Z,11.17
2022-10-18T00:11:48.804Z,11.17
2022-10-18T00:14:51.217Z,11.19
2022-10-18T00:17:52.889Z,11.14
2022-10-18T00:21:03.000Z,11.19
2022-10-18T00:24:05.446Z,11.13
2022-10-18T00:27:07.091Z,11.09
2022-10-18T00:30:09.372Z,11.07
2022-10-18T00:33:11.029Z,11.05
2022-10-18T00:36:13.778Z,11.08
2022-10-18T00:39:19.500Z,11.04
2022-10-18T00:42:24.148Z,11.04
2022-10-18T00:45:27.256Z,10.97
2022-10-18T00:48:29.318Z,10.99
2022-10-18T00:51:41.533Z,10.90
2022-10-18T00:54:45.570Z,10.84
2022-10-18T00:57:47.896Z,10.82
2022-10-18T01:00:50.013Z,10.79
2022-10-18T01:03:53.290Z,10.79
2022-10-18T01:07:10.799Z,10.77
2022-10-18T01:10:25.565Z,10.79
2022-10-18T01:14:02.983Z,10.75
2022-10-18T01:17:34.277Z,10.72
2022-10-18T01:20:50.160Z,10.60
2022-10-18T01:24:09.978Z,10.67
2022-10-18T01:27:30.148Z,10.64
2022-10-18T01:30:35.054Z,10.64
2022-10-18T01:33:43.378Z,10.64
2022-10-18T01:36:50.758Z,10.58
2022-10-18T01:39:55.857Z,10.51
2022-10-18T01:42:57.690Z,10.50
2022-10-18T01:46:00.690Z,10.52
2022-10-18T01:49:02.698Z,10.53
2022-10-18T01:52:04.816Z,10.44
2022-10-18T01:55:06.968Z,10.52
2022-10-18T01:58:55.429Z,10.51
2022-10-18T02:02:34.622Z,10.49
2022-10-18T02:05:44.219Z,10.48
2022-10-18T02:09:01.858Z,10.46
2022-10-18T02:12:04.929Z,10.36
2022-10-18T02:15:10.096Z,10.37
2022-10-18T02:18:19.209Z,10.39
2022-10-18T02:21:22.535Z,10.36
2022-10-18T02:24:30.619Z,10.36
2022-10-18T02:27:32.597Z,10.34
2022-10-18T02:31:00.165Z,10.45
2022-10-18T02:34:22.734Z,10.43
2022-10-18T02:37:28.793Z,10.34
2022-10-18T02:40:31.375Z,10.33
2022-10-18T02:43:33.113Z,10.33
2022-10-18T02:46:35.225Z,10.31
2022-10-18T02:49:36.865Z,10.37
2022-10-18T02:52:38.668Z,10.33
2022-10-18T02:55:40.308Z,10.30
2022-10-18T02:58:42.091Z,10.29
2022-10-18T03:01:43.883Z,10.30
2022-10-18T03:04:45.556Z,10.31
2022-10-18T03:07:48.123Z,10.28
2022-10-18T03:10:53.519Z,10.32
2022-10-18T03:13:58.928Z,10.29
2022-10-18T03:17:00.557Z,10.28
2022-10-18T03:20:02.197Z,10.30
2022-10-18T03:23:03.931Z,10.28
2022-10-18T03:26:05.794Z,10.26
2022-10-18T03:29:07.660Z,10.27
2022-10-18T03:32:09.341Z,10.23
2022-10-18T03:35:11.098Z,10.21
2022-10-18T03:38:12.980Z,10.23
2022-10-18T03:41:14.901Z,10.25
2022-10-18T03:44:16.668Z,10.18
2022-10-18T03:47:18.284Z,10.11
2022-10-18T03:50:19.944Z,10.15
2022-10-18T03:53:21.609Z,10.08
2022-10-18T03:56:23.356Z,10.13
2022-10-18T03:59:24.952Z,10.11
2022-10-18T04:02:26.679Z,10.17
2022-10-18T04:05:30.815Z,10.16
2022-10-18T04:08:32.599Z,10.18
2022-10-18T04:11:34.408Z,10.22
2022-10-18T04:14:36.208Z,10.24
2022-10-18T04:17:37.855Z,10.29
2022-10-18T04:20:39.500Z,10.26
2022-10-18T04:23:41.285Z,10.29
2022-10-18T04:26:42.856Z,10.35
2022-10-18T04:29:44.631Z,10.42
2022-10-18T04:32:46.324Z,10.38
2022-10-18T04:35:51.466Z,10.38
2022-10-18T04:38:53.235Z,10.42
2022-10-18T04:41:54.970Z,10.43
2022-10-18T04:44:56.632Z,10.43
2022-10-18T04:47:58.382Z,10.43
2022-10-18T04:50:59.987Z,10.50
2022-10-18T04:54:01.699Z,10.58
2022-10-18T04:57:03.802Z,10.59
2022-10-18T05:00:06.111Z,10.59
2022-10-18T05:03:08.931Z,10.68
2022-10-18T05:06:10.716Z,10.65
2022-10-18T05:09:12.520Z,10.65
2022-10-18T05:12:14.189Z,10.66
2022-10-18T05:15:15.950Z,10.73
2022-10-18T05:18:17.832Z,10.71
2022-10-18T05:21:19.463Z,10.75
2022-10-18T05:24:23.049Z,10.83
2022-10-18T05:27:28.628Z,10.83
2022-10-18T05:30:30.396Z,10.85
2022-10-18T05:33:32.912Z,10.89
2022-10-18T05:36:34.800Z,10.88
2022-10-18T05:39:37.872Z,10.92
2022-10-18T05:42:39.999Z,11.02
2022-10-18T05:45:50.757Z,11.05
2022-10-18T05:48:52.622Z,10.98
2022-10-18T05:51:54.275Z,11.03
2022-10-18T05:54:55.910Z,11.03
2022-10-18T05:57:57.612Z,11.06
2022-10-18T06:01:01.022Z,11.09
2022-10-18T06:04:02.710Z,11.17
2022-10-18T06:07:08.840Z,11.17
2022-10-18T06:10:10.635Z,11.23
2022-10-18T06:13:12.264Z,11.20
2022-10-18T06:16:15.978Z,11.22
2022-10-18T06:19:17.998Z,11.25
2022-10-18T06:22:19.805Z,11.27
2022-10-18T06:25:21.428Z,11.30
2022-10-18T06:28:23.059Z,11.40
2022-10-18T06:31:24.662Z,11.33
2022-10-18T06:34:26.332Z,11.43
2022-10-18T06:37:30.830Z,11.44
2022-10-18T06:40:37.872Z,11.46
2022-10-18T06:43:39.870Z,11.51
2022-10-18T06:46:42.551Z,11.62
2022-10-18T06:49:44.143Z,11.61
2022-10-18T06:52:47.000Z,11.68
2022-10-18T06:55:48.931Z,11.71
2022-10-18T06:58:50.644Z,11.76
2022-10-18T07:01:52.423Z,11.84
2022-10-18T07:04:54.121Z,11.89
2022-10-18T07:07:56.547Z,11.94
2022-10-18T07:10:58.617Z,12.06
2022-10-18T07:14:03.204Z,12.15
2022-10-18T07:17:04.911Z,12.17
2022-10-18T07:20:06.960Z,12.29
2022-10-18T07:23:09.584Z,12.34
2022-10-18T07:26:12.730Z,12.41
2022-10-18T07:29:14.482Z,12.47
2022-10-18T07:32:16.122Z,12.53
2022-10-18T07:35:18.516Z,12.61
2022-10-18T07:38:20.171Z,12.62
2022-10-18T07:41:22.088Z,12.70
2022-10-18T07:44:23.799Z,12.75
2022-10-18T07:47:25.397Z,12.84
2022-10-18T07:50:27.028Z,12.93
2022-10-18T07:53:29.146Z,13.00
2022-10-18T07:56:30.735Z,13.06
2022-10-18T07:59:32.411Z,13.14
2022-10-18T08:02:34.025Z,13.24
2022-10-18T08:05:35.714Z,13.33
2022-10-18T08:08:38.736Z,13.41
2022-10-18T08:11:40.382Z,13.47
2022-10-18T08:14:42.556Z,13.57
2022-10-18T08:17:44.351Z,13.73
2022-10-18T08:20:46.625Z,13.76
2022-10-18T08:23:49.132Z,13.88
2022-10-18T08:26:50.883Z,14.01
2022-10-18T08:29:53.431Z,14.08
2022-10-18T08:32:55.140Z,14.24
2022-10-18T08:36:01.973Z,14.30
2022-10-18T08:39:04.136Z,14.33
2022-10-18T08:42:52.645Z,14.47
2022-10-18T08:45:54.629Z,14.50
2022-10-18T08:48:56.986Z,14.50
2022-10-18T08:51:58.997Z,14.55
2022-10-18T08:55:04.555Z,14.65
2022-10-18T08:58:19.807Z,14.87
2022-10-18T09:01:43.229Z,15.00
2022-10-18T09:05:11.330Z,15.13
2022-10-18T09:08:33.506Z,15.26
2022-10-18T09:12:05.852Z,15.38
2022-10-18T09:15:29.495Z,15.54
2022-10-18T09:18:36.915Z,15.65
2022-10-18T09:21:52.923Z,15.75
2022-10-18T09:25:06.159Z,15.87
2022-10-18T09:28:13.714Z,15.99
2022-10-18T09:31:30.588Z,16.11
2022-10-18T09:34:40.900Z,16.22
2022-10-18T09:37:44.006Z,16.35
2022-10-18T09:40:56.101Z,16.47
2022-10-18T09:44:10.883Z,16.61
2022-10-18T09:47:17.689Z,16.72
2022-10-18T09:50:39.549Z,16.82
2022-10-18T09:54:05.138Z,17.01
2022-10-18T09:57:30.237Z,17.13
2022-10-18T10:00:39.592Z,17.22
2022-10-18T10:03:42.049Z,17.29
2022-10-18T10:06:50.672Z,17.37
2022-10-18T10:10:12.425Z,17.44
2022-10-18T10:13:23.312Z,17.55
2022-10-18T10:16:26.981Z,17.65
2022-10-18T10:19:35.262Z,17.75
2022-10-18T10:22:42.567Z,17.81
2022-10-18T10:25:44.221Z,17.92
2022-10-18T10:28:49.034Z,18.03
2022-10-18T10:32:04.249Z,18.10
2022-10-18T10:35:34.068Z,18.20
2022-10-18T10:38:43.883Z,18.26
2022-10-18T10:41:50.570Z,18.37
2022-10-18T10:44:55.411Z,18.46
2022-10-18T10:48:05.000Z,18.57
2022-10-18T10:51:08.937Z,18.64
2022-10-18T10:54:23.964Z,18.73
2022-10-18T10:57:29.163Z,18.79
2022-10-18T11:00:43.700Z,18.86
2022-10-18T11:03:50.495Z,18.92
2022-10-18T11:07:09.458Z,18.97
2022-10-18T11:10:14.097Z,19.06
2022-10-18T11:13:31.904Z,19.14
2022-10-18T11:16:39.228Z,19.19
2022-10-18T11:20:03.505Z,19.26
2022-10-18T11:23:12.446Z,19.38
2022-10-18T11:26:40.987Z,19.52
2022-10-18T11:29:49.033Z,19.61
2022-10-18T11:33:11.131Z,19.68
2022-10-18T11:39:47.977Z,19.77
2022-10-18T11:43:01.821Z,19.81
2022-10-18T11:46:11.740Z,19.83
2022-10-18T11:49:22.802Z,19.89
2022-10-18T11:52:27.424Z,19.93
2022-10-18T11:56:11.358Z,20.00
2022-10-18T11:59:29.615Z,20.10
2022-10-18T12:02:58.844Z,20.18
2022-10-18T12:06:06.805Z,20.24
2022-10-18T12:09:24.394Z,20.34
2022-10-18T12:12:31.506Z,20.41
2022-10-18T12:18:47.375Z,20.54
2022-10-18T12:21:49.663Z,20.57
2022-10-18T12:24:51.587Z,20.56
2022-10-18T12:31:20.358Z,20.59
2022-10-18T12:34:21.838Z,20.61
2022-10-18T12:37:41.150Z,20.64
2022-10-18T12:40:45.369Z,20.60
2022-10-18T12:44:05.195Z,20.71
2022-10-18T12:47:06.853Z,20.71
2022-10-18T12:50:25.908Z,20.76
2022-10-18T12:53:29.424Z,20.79
2022-10-18T12:56:30.970Z,20.79
2022-10-18T12:59:32.461Z,20.81
2022-10-18T13:02:34.326Z,20.80
2022-10-18T13:05:53.268Z,20.85
2022-10-18T13:09:18.599Z,20.88
2022-10-18T13:12:20.117Z,20.85
2022-10-18T13:15:29.176Z,20.85
2022-10-18T13:18:58.207Z,20.84
2022-10-18T13:22:29.598Z,20.80
2022-10-18T13:25:46.248Z,20.83
2022-10-18T13:29:15.868Z,20.88
2022-10-18T13:32:28.097Z,20.89
2022-10-18T13:35:55.064Z,20.92
2022-10-18T13:38:59.741Z,20.96
2022-10-18T13:42:01.226Z,21.00
2022-10-18T13:45:32.374Z,21.00
2022-10-18T13:48:34.047Z,21.00
2022-10-18T13:51:54.094Z,21.00
2022-10-18T13:55:26.952Z,21.02
2022-10-18T13:59:14.689Z,21.01
2022-10-18T14:02:50.524Z,21.06
2022-10-18T14:06:00.357Z,21.05
2022-10-18T14:09:19.394Z,21.02
2022-10-18T14:12:44.102Z,20.96
2022-10-18T14:15:51.676Z,20.94
2022-10-18T14:19:01.005Z,20.86
2022-10-18T14:22:25.244Z,20.74
2022-10-18T14:25:33.083Z,20.61
2022-10-18T14:28:55.168Z,20.42
2022-10-18T14:31:58.005Z,20.15
2022-10-18T14:35:31.519Z,19.98
2022-10-18T14:38:23.041Z,19.77
2022-10-18T14:41:36.110Z,19.66
2022-10-18T14:44:37.653Z,19.59
2022-10-18T14:47:39.694Z,19.48
2022-10-18T14:50:43.814Z,19.39
2022-10-18T14:53:46.999Z,19.35
2022-10-18T14:56:48.765Z,19.29
2022-10-18T14:59:58.165Z,19.22
2022-10-18T15:03:01.702Z,19.16
2022-10-18T15:06:05.846Z,19.09
2022-10-18T15:09:09.828Z,19.02
2022-10-18T15:12:14.849Z,18.94
2022-10-18T15:15:27.296Z,18.86
2022-10-18T15:18:29.183Z,18.81
2022-10-18T15:21:31.415Z,18.73
2022-10-18T15:24:36.978Z,18.69
2022-10-18T15:27:40.073Z,18.60
2022-10-18T15:30:43.075Z,18.58
2022-10-18T15:33:44.672Z,18.54
2022-10-18T15:36:47.250Z,18.49
2022-10-18T15:39:49.110Z,18.45
2022-10-18T15:42:56.118Z,18.42
2022-10-18T15:46:03.429Z,18.37
2022-10-18T15:49:45.076Z,18.34
2022-10-18T15:52:46.652Z,18.32
2022-10-18T15:55:52.292Z,18.29
2022-10-18T15:58:57.106Z,18.26
2022-10-18T16:01:58.899Z,18.19
2022-10-18T16:05:01.833Z,18.13
2022-10-18T16:08:03.636Z,18.09
2022-10-18T16:11:05.430Z,18.02
2022-10-18T16:14:07.005Z,17.98
2022-10-18T16:17:16.927Z,17.91
2022-10-18T16:20:24.145Z,17.83
2022-10-18T16:23:28.781Z,17.75
2022-10-18T16:26:30.694Z,17.67
2022-10-18T16:29:33.468Z,17.57
2022-10-18T16:32:35.237Z,17.52
2022-10-18T16:35:37.075Z,17.46
2022-10-18T16:38:38.789Z,17.37
2022-10-18T16:41:40.341Z,17.28
2022-10-18T16:44:41.922Z,17.21
2022-10-18T16:47:43.498Z,17.13
2022-10-18T16:50:45.651Z,17.05
2022-10-18T16:53:53.742Z,17.00
2022-10-18T16:56:55.355Z,16.91
2022-10-18T16:59:57.464Z,16.82
2022-10-18T17:03:01.874Z,16.78
2022-10-18T17:06:07.016Z,16.69
2022-10-18T17:09:09.603Z,16.62
2022-10-18T17:12:11.168Z,16.55
2022-10-18T17:15:13.017Z,16.50
2022-10-18T17:18:18.479Z,16.42
2022-10-18T17:21:20.148Z,16.36
2022-10-18T17:24:21.711Z,16.28
2022-10-18T17:27:23.416Z,16.20
2022-10-18T17:30:24.996Z,16.15
2022-10-18T17:33:26.752Z,16.08
2022-10-18T17:36:29.538Z,16.00
2022-10-18T17:39:33.795Z,15.92
2022-10-18T17:42:35.466Z,15.88
2022-10-18T17:45:36.986Z,15.81
2022-10-18T17:48:38.555Z,15.75
2022-10-18T17:51:41.406Z,15.72
2022-10-18T17:54:42.979Z,15.67
2022-10-18T17:57:44.598Z,15.60
2022-10-18T18:00:46.124Z,15.58
2022-10-18T18:03:47.890Z,15.54
2022-10-18T18:06:49.523Z,15.49
2022-10-18T18:09:51.452Z,15.45
2022-10-18T18:12:53.028Z,15.41
2022-10-18T18:15:54.666Z,15.37
2022-10-18T18:18:58.679Z,15.34
2022-10-18T18:22:00.403Z,15.28
2022-10-18T18:25:01.924Z,15.25
2022-10-18T18:28:05.146Z,15.17
2022-10-18T18:31:20.325Z,15.24
2022-10-18T18:34:24.501Z,15.17
2022-10-18T18:37:27.189Z,15.23
2022-10-18T18:40:28.728Z,15.24
2022-10-18T18:43:30.510Z,15.24
2022-10-18T18:46:36.750Z,15.24
2022-10-18T18:49:38.376Z,15.21
2022-10-18T18:52:39.900Z,15.26
2022-10-18T18:55:42.844Z,15.29
2022-10-18T18:58:45.575Z,15.31
2022-10-18T19:01:47.186Z,15.35
2022-10-18T19:04:48.818Z,15.38
2022-10-18T19:07:50.404Z,15.41
2022-10-18T19:10:51.973Z,15.42
2022-10-18T19:13:53.652Z,15.43
2022-10-18T19:16:58.819Z,15.44
2022-10-18T19:20:01.265Z,15.45
2022-10-18T19:23:03.155Z,15.38
2022-10-18T19:26:13.572Z,15.48
2022-10-18T19:29:15.265Z,15.48
2022-10-18T19:35:38.934Z,15.38
2022-10-18T19:39:10.494Z,15.38
2022-10-18T19:42:21.161Z,15.42
2022-10-18T19:45:27.961Z,15.43
2022-10-18T19:48:32.249Z,15.44
2022-10-18T19:51:35.967Z,15.40
2022-10-18T19:54:37.860Z,15.38
2022-10-18T19:57:39.743Z,15.34
2022-10-18T20:00:41.432Z,15.31
2022-10-18T20:03:45.868Z,15.27
2022-10-18T20:06:48.041Z,15.23
2022-10-18T20:09:51.370Z,15.11
2022-10-18T20:12:53.004Z,15.16
2022-10-18T20:15:54.876Z,15.10
2022-10-18T20:19:01.401Z,15.06
2022-10-18T20:22:03.110Z,15.02
2022-10-18T20:25:05.395Z,14.94
2022-10-18T20:28:14.294Z,14.91
2022-10-18T20:31:19.639Z,14.89
2022-10-18T20:34:25.783Z,14.78
2022-10-18T20:37:27.546Z,14.79
2022-10-18T20:40:30.448Z,14.78
2022-10-18T20:43:32.603Z,14.73
2022-10-18T20:46:36.279Z,14.69
2022-10-18T20:49:37.908Z,14.70
2022-10-18T20:52:39.765Z,14.69
2022-10-18T20:55:42.770Z,14.69
2022-10-18T20:58:46.259Z,14.61
2022-10-18T21:01:51.580Z,14.64
2022-10-18T21:04:53.379Z,14.66
2022-10-18T21:07:55.058Z,14.68
2022-10-18T21:10:56.788Z,14.67
2022-10-18T21:14:02.635Z,14.63
2022-10-18T21:17:04.257Z,14.59
2022-10-18T21:20:06.694Z,14.60
2022-10-18T21:23:08.299Z,14.59
2022-10-18T21:26:21.038Z,14.57
2022-10-18T21:29:24.622Z,14.57
2022-10-18T21:32:26.344Z,14.53
2022-10-18T21:35:27.877Z,14.50
2022-10-18T21:38:29.613Z,14.48
2022-10-18T21:41:31.755Z,14.41
2022-10-18T21:44:33.280Z,14.38
2022-10-18T21:47:34.904Z,14.37
2022-10-18T21:50:36.437Z,14.32
2022-10-18T21:53:38.022Z,14.27
2022-10-18T21:56:39.609Z,14.21
2022-10-18T21:59:41.156Z,14.16
2022-10-18T22:02:42.716Z,14.11
2022-10-18T22:05:44.256Z,14.06
2022-10-18T22:08:51.635Z,13.97
2022-10-18T22:11:53.617Z,13.93
2022-10-18T22:14:55.190Z,13.89
2022-10-18T22:17:56.774Z,13.85
2022-10-18T22:21:00.789Z,13.82
2022-10-18T22:24:06.003Z,13.78
2022-10-18T22:27:07.563Z,13.73
2022-10-18T22:30:09.703Z,13.72
2022-10-18T22:33:11.309Z,13.68
2022-10-18T22:36:13.683Z,13.65
2022-10-18T22:39:16.782Z,13.61
2022-10-18T22:42:18.355Z,13.58
2022-10-18T22:45:19.989Z,13.52
2022-10-18T22:48:21.544Z,13.48
2022-10-18T22:51:23.641Z,13.49
2022-10-18T22:54:25.221Z,13.50
2022-10-18T22:57:26.901Z,13.50
2022-10-18T23:00:28.508Z,13.51
2022-10-18T23:03:30.131Z,13.50
2022-10-18T23:06:34.157Z,13.53
2022-10-18T23:09:35.773Z,13.55
2022-10-18T23:12:37.413Z,13.58
2022-10-18T23:15:39.120Z,13.50
2022-10-18T23:18:40.998Z,13.61
2022-10-18T23:21:42.704Z,13.61
2022-10-18T23:24:44.483Z,13.63
2022-10-18T23:27:46.348Z,13.60
2022-10-18T23:30:48.018Z,13.64
2022-10-18T23:33:52.030Z,13.63
2022-10-18T23:36:53.624Z,13.60
2022-10-18T23:39:55.170Z,13.59
2022-10-18T23:42:56.678Z,13.56
2022-10-18T23:45:58.268Z,13.54
2022-10-18T23:48:59.803Z,13.51
2022-10-18T23:52:01.392Z,13.41
2022-10-18T23:55:03.417Z,13.40
2022-10-18T23:58:05.094Z,13.33
